sensor_id;sensor_type;location;lat;lon;timestamp;P1;durP1;ratioP1;P2;durP2;ratioP2
20671;SDS011;10495;50.922;4.760;2022-08-19T00:00:18;9.83;;;8.93;;
20671;SDS011;10495;50.922;4.760;2022-08-19T00:02:44;9.37;;;8.53;;
20671;SDS011;10495;50.922;4.760;2022-08-19T00:05:11;10.20;;;9.20;;
20671;SDS011;10495;50.922;4.760;2022-08-19T00:07:38;10.37;;;9.33;;
20671;SDS011;10495;50.922;4.760;2022-08-19T00:10:07;9.90;;;9.00;;
20671;SDS011;10495;50.922;4.760;2022-08-19T00:12:34;10.50;;;9.40;;
20671;SDS011;10495;50.922;4.760;2022-08-19T00:15:01;9.60;;;8.70;;
20671;SDS011;10495;50.922;4.760;2022-08-19T00:17:27;10.47;;;9.47;;
20671;SDS011;10495;50.922;4.760;2022-08-19T00:19:52;9.73;;;8.90;;
20671;SDS011;10495;50.922;4.760;2022-08-19T00:22:18;10.50;;;9.50;;
20671;SDS011;10495;50.922;4.760;2022-08-19T00:24:44;10.67;;;8.43;;
20671;SDS011;10495;50.922;4.760;2022-08-19T00:27:10;9.00;;;8.10;;
20671;SDS011;10495;50.922;4.760;2022-08-19T00:29:36;8.90;;;8.10;;
20671;SDS011;10495;50.922;4.760;2022-08-19T00:32:03;8.40;;;7.67;;
20671;SDS011;10495;50.922;4.760;2022-08-19T00:34:29;10.73;;;9.63;;
20671;SDS011;10495;50.922;4.760;2022-08-19T00:36:55;10.90;;;9.90;;
20671;SDS011;10495;50.922;4.760;2022-08-19T00:39:21;12.07;;;10.80;;
20671;SDS011;10495;50.922;4.760;2022-08-19T00:41:47;10.37;;;9.37;;
20671;SDS011;10495;50.922;4.760;2022-08-19T00:44:19;12.40;;;9.80;;
20671;SDS011;10495;50.922;4.760;2022-08-19T00:46:50;11.30;;;9.75;;
20671;SDS011;10495;50.922;4.760;2022-08-19T00:49:25;12.63;;;10.63;;
20671;SDS011;10495;50.922;4.760;2022-08-19T00:52:06;10.73;;;9.63;;
20671;SDS011;10495;50.922;4.760;2022-08-19T00:54:35;13.37;;;10.20;;
20671;SDS011;10495;50.922;4.760;2022-08-19T00:57:02;12.60;;;10.03;;
20671;SDS011;10495;50.922;4.760;2022-08-19T00:59:31;18.03;;;12.47;;
20671;SDS011;10495;50.922;4.760;2022-08-19T01:02:00;12.50;;;11.20;;
20671;SDS011;10495;50.922;4.760;2022-08-19T01:04:26;14.07;;;12.13;;
20671;SDS011;10495;50.922;4.760;2022-08-19T01:06:52;14.80;;;12.80;;
20671;SDS011;10495;50.922;4.760;2022-08-19T01:09:17;17.17;;;13.40;;
20671;SDS011;10495;50.922;4.760;2022-08-19T01:11:43;14.10;;;12.00;;
20671;SDS011;10495;50.922;4.760;2022-08-19T01:14:10;16.47;;;12.47;;
20671;SDS011;10495;50.922;4.760;2022-08-19T01:16:36;19.07;;;14.60;;
20671;SDS011;10495;50.922;4.760;2022-08-19T01:19:04;24.33;;;16.43;;
20671;SDS011;10495;50.922;4.760;2022-08-19T01:21:42;18.90;;;14.77;;
20671;SDS011;10495;50.922;4.760;2022-08-19T01:24:14;19.03;;;15.03;;
20671;SDS011;10495;50.922;4.760;2022-08-19T01:26:43;20.63;;;15.27;;
20671;SDS011;10495;50.922;4.760;2022-08-19T01:29:10;21.13;;;16.00;;
20671;SDS011;10495;50.922;4.760;2022-08-19T01:31:36;19.53;;;15.67;;
20671;SDS011;10495;50.922;4.760;2022-08-19T01:34:04;20.42;;;14.40;;
20671;SDS011;10495;50.922;4.760;2022-08-19T01:36:32;21.30;;;15.60;;
20671;SDS011;10495;50.922;4.760;2022-08-19T01:39:06;22.35;;;16.80;;
20671;SDS011;10495;50.922;4.760;2022-08-19T01:41:34;19.47;;;15.37;;
20671;SDS011;10495;50.922;4.760;2022-08-19T01:44:00;17.63;;;13.50;;
20671;SDS011;10495;50.922;4.760;2022-08-19T01:46:28;18.43;;;13.27;;
20671;SDS011;10495;50.922;4.760;2022-08-19T01:48:55;17.30;;;12.73;;
20671;SDS011;10495;50.922;4.760;2022-08-19T01:51:20;18.70;;;14.63;;
20671;SDS011;10495;50.922;4.760;2022-08-19T01:53:49;15.73;;;12.97;;
20671;SDS011;10495;50.922;4.760;2022-08-19T01:56:16;17.25;;;12.90;;
20671;SDS011;10495;50.922;4.760;2022-08-19T01:58:45;18.00;;;13.30;;
20671;SDS011;10495;50.922;4.760;2022-08-19T02:01:33;17.13;;;13.38;;
20671;SDS011;10495;50.922;4.760;2022-08-19T02:03:59;14.37;;;11.70;;
20671;SDS011;10495;50.922;4.760;2022-08-19T02:06:28;14.30;;;12.50;;
20671;SDS011;10495;50.922;4.760;2022-08-19T02:08:53;19.17;;;14.57;;
20671;SDS011;10495;50.922;4.760;2022-08-19T02:11:21;15.40;;;12.13;;
20671;SDS011;10495;50.922;4.760;2022-08-19T02:13:52;17.70;;;12.53;;
20671;SDS011;10495;50.922;4.760;2022-08-19T02:16:19;16.73;;;12.13;;
20671;SDS011;10495;50.922;4.760;2022-08-19T02:18:46;12.77;;;11.00;;
20671;SDS011;10495;50.922;4.760;2022-08-19T02:21:13;15.67;;;12.27;;
20671;SDS011;10495;50.922;4.760;2022-08-19T02:23:43;16.83;;;13.13;;
20671;SDS011;10495;50.922;4.760;2022-08-19T02:26:10;15.33;;;12.33;;
20671;SDS011;10495;50.922;4.760;2022-08-19T02:28:36;18.63;;;13.67;;
20671;SDS011;10495;50.922;4.760;2022-08-19T02:31:02;15.97;;;13.30;;
20671;SDS011;10495;50.922;4.760;2022-08-19T02:33:28;19.67;;;14.13;;
20671;SDS011;10495;50.922;4.760;2022-08-19T02:35:54;16.67;;;13.03;;
20671;SDS011;10495;50.922;4.760;2022-08-19T02:38:20;16.03;;;13.03;;
20671;SDS011;10495;50.922;4.760;2022-08-19T02:40:52;16.47;;;12.30;;
20671;SDS011;10495;50.922;4.760;2022-08-19T02:43:21;18.37;;;14.00;;
20671;SDS011;10495;50.922;4.760;2022-08-19T02:45:47;20.17;;;14.20;;
20671;SDS011;10495;50.922;4.760;2022-08-19T02:48:17;22.80;;;17.30;;
20671;SDS011;10495;50.922;4.760;2022-08-19T02:50:44;22.87;;;16.97;;
20671;SDS011;10495;50.922;4.760;2022-08-19T02:53:11;18.67;;;13.40;;
20671;SDS011;10495;50.922;4.760;2022-08-19T02:55:44;19.73;;;13.43;;
20671;SDS011;10495;50.922;4.760;2022-08-19T02:58:11;16.67;;;12.60;;
20671;SDS011;10495;50.922;4.760;2022-08-19T03:00:44;19.57;;;13.63;;
20671;SDS011;10495;50.922;4.760;2022-08-19T03:03:12;14.50;;;10.97;;
20671;SDS011;10495;50.922;4.760;2022-08-19T03:05:37;15.77;;;11.10;;
20671;SDS011;10495;50.922;4.760;2022-08-19T03:08:03;15.87;;;11.93;;
20671;SDS011;10495;50.922;4.760;2022-08-19T03:10:30;15.33;;;12.17;;
20671;SDS011;10495;50.922;4.760;2022-08-19T03:12:57;14.93;;;11.80;;
20671;SDS011;10495;50.922;4.760;2022-08-19T03:15:22;17.93;;;13.17;;
20671;SDS011;10495;50.922;4.760;2022-08-19T03:17:48;21.50;;;15.03;;
20671;SDS011;10495;50.922;4.760;2022-08-19T03:20:13;16.93;;;13.00;;
20671;SDS011;10495;50.922;4.760;2022-08-19T03:22:39;18.43;;;13.53;;
20671;SDS011;10495;50.922;4.760;2022-08-19T03:25:04;17.97;;;12.83;;
20671;SDS011;10495;50.922;4.760;2022-08-19T03:27:30;23.90;;;15.93;;
20671;SDS011;10495;50.922;4.760;2022-08-19T03:29:56;24.37;;;16.17;;
20671;SDS011;10495;50.922;4.760;2022-08-19T03:32:21;23.17;;;15.97;;
20671;SDS011;10495;50.922;4.760;2022-08-19T03:34:47;20.57;;;14.10;;
20671;SDS011;10495;50.922;4.760;2022-08-19T03:37:14;15.87;;;13.03;;
20671;SDS011;10495;50.922;4.760;2022-08-19T03:39:40;20.33;;;13.77;;
20671;SDS011;10495;50.922;4.760;2022-08-19T03:42:07;18.50;;;13.77;;
20671;SDS011;10495;50.922;4.760;2022-08-19T03:44:33;18.90;;;13.83;;
20671;SDS011;10495;50.922;4.760;2022-08-19T03:47:01;23.40;;;15.57;;
20671;SDS011;10495;50.922;4.760;2022-08-19T03:49:27;18.27;;;13.77;;
20671;SDS011;10495;50.922;4.760;2022-08-19T03:51:55;16.17;;;12.80;;
20671;SDS011;10495;50.922;4.760;2022-08-19T03:54:22;17.43;;;13.43;;
20671;SDS011;10495;50.922;4.760;2022-08-19T03:56:50;20.40;;;14.23;;
20671;SDS011;10495;50.922;4.760;2022-08-19T03:59:19;19.97;;;14.23;;
20671;SDS011;10495;50.922;4.760;2022-08-19T04:01:51;17.07;;;12.40;;
20671;SDS011;10495;50.922;4.760;2022-08-19T04:04:18;18.20;;;13.67;;
20671;SDS011;10495;50.922;4.760;2022-08-19T04:06:44;16.23;;;12.50;;
20671;SDS011;10495;50.922;4.760;2022-08-19T04:09:12;18.10;;;13.67;;
20671;SDS011;10495;50.922;4.760;2022-08-19T04:11:39;15.77;;;12.60;;
20671;SDS011;10495;50.922;4.760;2022-08-19T04:14:06;16.50;;;13.00;;
20671;SDS011;10495;50.922;4.760;2022-08-19T04:16:32;16.10;;;12.80;;
20671;SDS011;10495;50.922;4.760;2022-08-19T04:18:59;18.27;;;12.93;;
20671;SDS011;10495;50.922;4.760;2022-08-19T04:21:26;17.07;;;13.00;;
20671;SDS011;10495;50.922;4.760;2022-08-19T04:23:53;16.70;;;12.30;;
20671;SDS011;10495;50.922;4.760;2022-08-19T04:26:22;16.70;;;12.60;;
20671;SDS011;10495;50.922;4.760;2022-08-19T04:28:50;16.50;;;12.73;;
20671;SDS011;10495;50.922;4.760;2022-08-19T04:31:17;19.23;;;13.03;;
20671;SDS011;10495;50.922;4.760;2022-08-19T04:33:45;17.20;;;12.43;;
20671;SDS011;10495;50.922;4.760;2022-08-19T04:36:18;15.90;;;12.00;;
20671;SDS011;10495;50.922;4.760;2022-08-19T04:38:49;16.27;;;12.67;;
20671;SDS011;10495;50.922;4.760;2022-08-19T04:41:18;14.37;;;11.27;;
20671;SDS011;10495;50.922;4.760;2022-08-19T04:44:02;17.97;;;12.23;;
20671;SDS011;10495;50.922;4.760;2022-08-19T04:46:28;16.47;;;11.87;;
20671;SDS011;10495;50.922;4.760;2022-08-19T04:48:57;16.70;;;12.07;;
20671;SDS011;10495;50.922;4.760;2022-08-19T04:51:23;15.97;;;11.23;;
20671;SDS011;10495;50.922;4.760;2022-08-19T04:53:48;17.63;;;11.97;;
20671;SDS011;10495;50.922;4.760;2022-08-19T04:56:15;13.73;;;10.93;;
20671;SDS011;10495;50.922;4.760;2022-08-19T04:58:43;19.27;;;13.30;;
20671;SDS011;10495;50.922;4.760;2022-08-19T05:01:11;23.90;;;15.57;;
20671;SDS011;10495;50.922;4.760;2022-08-19T05:03:39;20.33;;;14.73;;
20671;SDS011;10495;50.922;4.760;2022-08-19T05:06:05;24.13;;;15.10;;
20671;SDS011;10495;50.922;4.760;2022-08-19T05:08:33;19.37;;;13.23;;
20671;SDS011;10495;50.922;4.760;2022-08-19T05:11:00;18.43;;;12.93;;
20671;SDS011;10495;50.922;4.760;2022-08-19T05:13:25;19.00;;;13.10;;
20671;SDS011;10495;50.922;4.760;2022-08-19T05:15:58;20.13;;;13.83;;
20671;SDS011;10495;50.922;4.760;2022-08-19T05:18:24;21.23;;;14.77;;
20671;SDS011;10495;50.922;4.760;2022-08-19T05:21:09;23.67;;;16.60;;
20671;SDS011;10495;50.922;4.760;2022-08-19T05:23:56;25.80;;;16.73;;
20671;SDS011;10495;50.922;4.760;2022-08-19T05:26:22;26.60;;;16.63;;
20671;SDS011;10495;50.922;4.760;2022-08-19T05:28:50;19.63;;;14.33;;
20671;SDS011;10495;50.922;4.760;2022-08-19T05:31:17;26.13;;;17.50;;
20671;SDS011;10495;50.922;4.760;2022-08-19T05:33:42;27.23;;;17.70;;
20671;SDS011;10495;50.922;4.760;2022-08-19T05:36:08;23.17;;;15.77;;
20671;SDS011;10495;50.922;4.760;2022-08-19T05:38:34;25.10;;;16.50;;
20671;SDS011;10495;50.922;4.760;2022-08-19T05:41:00;27.83;;;18.07;;
20671;SDS011;10495;50.922;4.760;2022-08-19T05:43:37;25.77;;;15.47;;
20671;SDS011;10495;50.922;4.760;2022-08-19T05:46:03;25.93;;;16.20;;
20671;SDS011;10495;50.922;4.760;2022-08-19T05:48:30;21.43;;;14.87;;
20671;SDS011;10495;50.922;4.760;2022-08-19T05:50:57;22.67;;;15.43;;
20671;SDS011;10495;50.922;4.760;2022-08-19T05:53:24;21.40;;;13.33;;
20671;SDS011;10495;50.922;4.760;2022-08-19T05:55:50;23.67;;;14.37;;
20671;SDS011;10495;50.922;4.760;2022-08-19T05:58:16;19.27;;;14.13;;
20671;SDS011;10495;50.922;4.760;2022-08-19T06:00:42;22.47;;;14.00;;
20671;SDS011;10495;50.922;4.760;2022-08-19T06:03:09;22.57;;;14.93;;
20671;SDS011;10495;50.922;4.760;2022-08-19T06:05:35;17.93;;;12.40;;
20671;SDS011;10495;50.922;4.760;2022-08-19T06:08:00;17.80;;;12.07;;
20671;SDS011;10495;50.922;4.760;2022-08-19T06:10:26;15.93;;;11.60;;
20671;SDS011;10495;50.922;4.760;2022-08-19T06:12:53;22.47;;;12.23;;
20671;SDS011;10495;50.922;4.760;2022-08-19T06:15:21;19.07;;;11.70;;
20671;SDS011;10495;50.922;4.760;2022-08-19T06:17:50;18.67;;;13.13;;
20671;SDS011;10495;50.922;4.760;2022-08-19T06:20:16;14.93;;;10.43;;
20671;SDS011;10495;50.922;4.760;2022-08-19T06:22:43;24.67;;;13.45;;
20671;SDS011;10495;50.922;4.760;2022-08-19T06:25:11;19.67;;;13.23;;
20671;SDS011;10495;50.922;4.760;2022-08-19T06:27:37;20.23;;;11.73;;
20671;SDS011;10495;50.922;4.760;2022-08-19T06:30:04;15.77;;;11.00;;
20671;SDS011;10495;50.922;4.760;2022-08-19T06:32:30;18.50;;;12.90;;
20671;SDS011;10495;50.922;4.760;2022-08-19T06:34:56;18.80;;;12.97;;
20671;SDS011;10495;50.922;4.760;2022-08-19T06:37:22;16.40;;;10.77;;
20671;SDS011;10495;50.922;4.760;2022-08-19T06:39:48;16.60;;;10.80;;
20671;SDS011;10495;50.922;4.760;2022-08-19T06:42:14;16.45;;;11.38;;
20671;SDS011;10495;50.922;4.760;2022-08-19T06:44:42;17.48;;;11.98;;
20671;SDS011;10495;50.922;4.760;2022-08-19T06:47:10;17.50;;;11.82;;
20671;SDS011;10495;50.922;4.760;2022-08-19T06:49:37;17.75;;;11.23;;
20671;SDS011;10495;50.922;4.760;2022-08-19T06:52:04;14.07;;;9.80;;
20671;SDS011;10495;50.922;4.760;2022-08-19T06:54:30;16.45;;;11.55;;
20671;SDS011;10495;50.922;4.760;2022-08-19T06:56:56;16.30;;;11.18;;
20671;SDS011;10495;50.922;4.760;2022-08-19T06:59:29;12.15;;;9.65;;
20671;SDS011;10495;50.922;4.760;2022-08-19T07:01:58;16.50;;;9.32;;
20671;SDS011;10495;50.922;4.760;2022-08-19T07:04:29;17.83;;;11.32;;
20671;SDS011;10495;50.922;4.760;2022-08-19T07:07:00;14.90;;;9.25;;
20671;SDS011;10495;50.922;4.760;2022-08-19T07:09:31;18.45;;;9.30;;
20671;SDS011;10495;50.922;4.760;2022-08-19T07:11:57;17.27;;;9.73;;
20671;SDS011;10495;50.922;4.760;2022-08-19T07:14:23;11.32;;;7.68;;
20671;SDS011;10495;50.922;4.760;2022-08-19T07:16:51;11.02;;;8.73;;
20671;SDS011;10495;50.922;4.760;2022-08-19T07:19:20;11.80;;;8.82;;
20671;SDS011;10495;50.922;4.760;2022-08-19T07:21:47;12.35;;;7.57;;
20671;SDS011;10495;50.922;4.760;2022-08-19T07:24:16;9.93;;;7.70;;
20671;SDS011;10495;50.922;4.760;2022-08-19T07:26:42;15.10;;;9.20;;
20671;SDS011;10495;50.922;4.760;2022-08-19T07:29:10;11.45;;;8.15;;
20671;SDS011;10495;50.922;4.760;2022-08-19T07:31:36;12.50;;;8.35;;
20671;SDS011;10495;50.922;4.760;2022-08-19T07:34:03;12.68;;;7.38;;
20671;SDS011;10495;50.922;4.760;2022-08-19T07:36:35;14.05;;;9.38;;
20671;SDS011;10495;50.922;4.760;2022-08-19T07:39:04;8.52;;;7.07;;
20671;SDS011;10495;50.922;4.760;2022-08-19T07:41:32;10.52;;;6.95;;
20671;SDS011;10495;50.922;4.760;2022-08-19T07:43:59;8.02;;;5.82;;
20671;SDS011;10495;50.922;4.760;2022-08-19T07:46:29;9.35;;;6.78;;
20671;SDS011;10495;50.922;4.760;2022-08-19T07:48:56;10.43;;;6.32;;
20671;SDS011;10495;50.922;4.760;2022-08-19T07:51:22;9.95;;;5.65;;
20671;SDS011;10495;50.922;4.760;2022-08-19T07:53:48;8.98;;;5.85;;
20671;SDS011;10495;50.922;4.760;2022-08-19T07:56:15;10.07;;;5.50;;
20671;SDS011;10495;50.922;4.760;2022-08-19T07:58:43;8.05;;;5.68;;
20671;SDS011;10495;50.922;4.760;2022-08-19T08:01:11;10.93;;;5.20;;
20671;SDS011;10495;50.922;4.760;2022-08-19T08:03:38;8.57;;;5.03;;
20671;SDS011;10495;50.922;4.760;2022-08-19T08:06:23;7.55;;;4.43;;
20671;SDS011;10495;50.922;4.760;2022-08-19T08:09:07;6.97;;;4.72;;
20671;SDS011;10495;50.922;4.760;2022-08-19T08:11:40;8.23;;;5.28;;
20671;SDS011;10495;50.922;4.760;2022-08-19T08:14:15;8.73;;;3.88;;
20671;SDS011;10495;50.922;4.760;2022-08-19T08:16:42;6.78;;;3.67;;
20671;SDS011;10495;50.922;4.760;2022-08-19T08:19:10;3.72;;;3.42;;
20671;SDS011;10495;50.922;4.760;2022-08-19T08:21:36;6.22;;;3.42;;
20671;SDS011;10495;50.922;4.760;2022-08-19T08:24:02;5.82;;;3.58;;
20671;SDS011;10495;50.922;4.760;2022-08-19T08:26:28;3.80;;;3.20;;
20671;SDS011;10495;50.922;4.760;2022-08-19T08:28:53;6.28;;;3.65;;
20671;SDS011;10495;50.922;4.760;2022-08-19T08:31:19;4.60;;;3.75;;
20671;SDS011;10495;50.922;4.760;2022-08-19T08:33:46;5.22;;;3.70;;
20671;SDS011;10495;50.922;4.760;2022-08-19T08:36:12;4.28;;;3.35;;
20671;SDS011;10495;50.922;4.760;2022-08-19T08:38:39;5.88;;;3.72;;
20671;SDS011;10495;50.922;4.760;2022-08-19T08:41:09;5.28;;;3.55;;
20671;SDS011;10495;50.922;4.760;2022-08-19T08:43:38;4.72;;;3.53;;
20671;SDS011;10495;50.922;4.760;2022-08-19T08:51:44;5.68;;;3.40;;
20671;SDS011;10495;50.922;4.760;2022-08-19T08:54:14;8.77;;;4.18;;
20671;SDS011;10495;50.922;4.760;2022-08-19T08:56:43;7.53;;;4.38;;
20671;SDS011;10495;50.922;4.760;2022-08-19T09:01:51;7.85;;;3.95;;
20671;SDS011;10495;50.922;4.760;2022-08-19T09:04:17;5.57;;;4.07;;
20671;SDS011;10495;50.922;4.760;2022-08-19T09:06:51;5.20;;;4.03;;
20671;SDS011;10495;50.922;4.760;2022-08-19T09:09:40;7.75;;;4.43;;
20671;SDS011;10495;50.922;4.760;2022-08-19T09:12:10;6.28;;;3.67;;
20671;SDS011;10495;50.922;4.760;2022-08-19T09:14:47;5.03;;;4.47;;
20671;SDS011;10495;50.922;4.760;2022-08-19T09:17:18;5.60;;;4.05;;
20671;SDS011;10495;50.922;4.760;2022-08-19T09:22:22;7.13;;;3.83;;
20671;SDS011;10495;50.922;4.760;2022-08-19T09:24:49;4.53;;;3.40;;
20671;SDS011;10495;50.922;4.760;2022-08-19T09:27:17;5.68;;;3.35;;
20671;SDS011;10495;50.922;4.760;2022-08-19T09:29:48;7.18;;;4.05;;
20671;SDS011;10495;50.922;4.760;2022-08-19T09:32:15;4.70;;;3.08;;
20671;SDS011;10495;50.922;4.760;2022-08-19T09:34:42;4.28;;;3.60;;
20671;SDS011;10495;50.922;4.760;2022-08-19T09:37:08;3.75;;;3.28;;
20671;SDS011;10495;50.922;4.760;2022-08-19T09:39:34;4.00;;;3.63;;
20671;SDS011;10495;50.922;4.760;2022-08-19T09:41:59;6.75;;;3.78;;
20671;SDS011;10495;50.922;4.760;2022-08-19T09:44:25;3.92;;;3.40;;
20671;SDS011;10495;50.922;4.760;2022-08-19T09:46:50;6.65;;;4.53;;
20671;SDS011;10495;50.922;4.760;2022-08-19T09:49:17;4.68;;;3.40;;
20671;SDS011;10495;50.922;4.760;2022-08-19T09:51:43;4.43;;;3.33;;
20671;SDS011;10495;50.922;4.760;2022-08-19T09:54:10;4.63;;;3.30;;
20671;SDS011;10495;50.922;4.760;2022-08-19T09:56:36;4.97;;;3.85;;
20671;SDS011;10495;50.922;4.760;2022-08-19T09:59:02;8.32;;;3.35;;
20671;SDS011;10495;50.922;4.760;2022-08-19T10:01:29;3.90;;;3.03;;
20671;SDS011;10495;50.922;4.760;2022-08-19T10:03:56;5.43;;;3.72;;
20671;SDS011;10495;50.922;4.760;2022-08-19T10:06:24;4.78;;;3.30;;
20671;SDS011;10495;50.922;4.760;2022-08-19T10:08:54;3.20;;;2.90;;
20671;SDS011;10495;50.922;4.760;2022-08-19T10:11:19;7.88;;;3.70;;
20671;SDS011;10495;50.922;4.760;2022-08-19T10:13:45;3.90;;;3.17;;
20671;SDS011;10495;50.922;4.760;2022-08-19T10:16:13;4.45;;;3.10;;
20671;SDS011;10495;50.922;4.760;2022-08-19T10:18:42;6.95;;;3.47;;
20671;SDS011;10495;50.922;4.760;2022-08-19T10:21:12;5.72;;;3.60;;
20671;SDS011;10495;50.922;4.760;2022-08-19T10:23:48;5.15;;;3.38;;
20671;SDS011;10495;50.922;4.760;2022-08-19T10:26:16;6.05;;;4.00;;
20671;SDS011;10495;50.922;4.760;2022-08-19T10:28:45;3.58;;;3.00;;
20671;SDS011;10495;50.922;4.760;2022-08-19T10:31:12;6.05;;;3.60;;
20671;SDS011;10495;50.922;4.760;2022-08-19T10:33:44;8.35;;;4.00;;
20671;SDS011;10495;50.922;4.760;2022-08-19T10:36:13;7.40;;;4.20;;
20671;SDS011;10495;50.922;4.760;2022-08-19T10:38:42;5.45;;;3.55;;
20671;SDS011;10495;50.922;4.760;2022-08-19T10:41:20;4.82;;;3.58;;
20671;SDS011;10495;50.922;4.760;2022-08-19T10:43:49;8.23;;;3.72;;
20671;SDS011;10495;50.922;4.760;2022-08-19T10:46:17;7.35;;;4.10;;
20671;SDS011;10495;50.922;4.760;2022-08-19T10:48:43;6.15;;;4.22;;
20671;SDS011;10495;50.922;4.760;2022-08-19T10:51:10;4.13;;;3.67;;
20671;SDS011;10495;50.922;4.760;2022-08-19T10:53:55;5.05;;;3.35;;
20671;SDS011;10495;50.922;4.760;2022-08-19T10:56:23;5.43;;;3.33;;
20671;SDS011;10495;50.922;4.760;2022-08-19T10:59:07;4.75;;;2.97;;
20671;SDS011;10495;50.922;4.760;2022-08-19T11:01:33;4.43;;;2.92;;
20671;SDS011;10495;50.922;4.760;2022-08-19T11:04:00;8.23;;;3.60;;
20671;SDS011;10495;50.922;4.760;2022-08-19T11:06:28;5.22;;;3.40;;
20671;SDS011;10495;50.922;4.760;2022-08-19T11:08:56;6.45;;;3.50;;
20671;SDS011;10495;50.922;4.760;2022-08-19T11:11:22;5.75;;;3.83;;
20671;SDS011;10495;50.922;4.760;2022-08-19T11:13:48;4.82;;;3.33;;
20671;SDS011;10495;50.922;4.760;2022-08-19T11:16:16;4.53;;;3.25;;
20671;SDS011;10495;50.922;4.760;2022-08-19T11:18:44;4.90;;;3.22;;
20671;SDS011;10495;50.922;4.760;2022-08-19T11:23:38;8.00;;;3.30;;
20671;SDS011;10495;50.922;4.760;2022-08-19T11:26:04;5.13;;;3.33;;
20671;SDS011;10495;50.922;4.760;2022-08-19T11:28:30;5.70;;;3.75;;
20671;SDS011;10495;50.922;4.760;2022-08-19T11:30:55;3.85;;;3.17;;
20671;SDS011;10495;50.922;4.760;2022-08-19T11:33:21;6.38;;;2.72;;
20671;SDS011;10495;50.922;4.760;2022-08-19T11:35:47;2.78;;;2.53;;
20671;SDS011;10495;50.922;4.760;2022-08-19T11:38:14;3.70;;;2.38;;
20671;SDS011;10495;50.922;4.760;2022-08-19T11:40:39;2.58;;;2.38;;
20671;SDS011;10495;50.922;4.760;2022-08-19T11:43:07;4.40;;;2.50;;
20671;SDS011;10495;50.922;4.760;2022-08-19T11:45:34;3.10;;;2.40;;
20671;SDS011;10495;50.922;4.760;2022-08-19T11:48:01;2.53;;;2.00;;
20671;SDS011;10495;50.922;4.760;2022-08-19T11:50:27;3.50;;;2.40;;
20671;SDS011;10495;50.922;4.760;2022-08-19T11:52:54;2.65;;;2.08;;
20671;SDS011;10495;50.922;4.760;2022-08-19T11:55:21;2.95;;;1.98;;
20671;SDS011;10495;50.922;4.760;2022-08-19T11:57:47;2.33;;;2.13;;
20671;SDS011;10495;50.922;4.760;2022-08-19T12:00:13;2.88;;;2.30;;
20671;SDS011;10495;50.922;4.760;2022-08-19T12:02:40;4.70;;;3.33;;
20671;SDS011;10495;50.922;4.760;2022-08-19T12:05:06;3.55;;;2.60;;
20671;SDS011;10495;50.922;4.760;2022-08-19T12:07:32;4.70;;;2.67;;
20671;SDS011;10495;50.922;4.760;2022-08-19T12:09:59;5.85;;;3.67;;
20671;SDS011;10495;50.922;4.760;2022-08-19T12:12:26;4.20;;;2.97;;
20671;SDS011;10495;50.922;4.760;2022-08-19T12:14:53;4.22;;;3.13;;
20671;SDS011;10495;50.922;4.760;2022-08-19T12:17:25;3.80;;;2.88;;
20671;SDS011;10495;50.922;4.760;2022-08-19T12:19:51;4.82;;;3.58;;
20671;SDS011;10495;50.922;4.760;2022-08-19T12:22:18;4.97;;;3.17;;
20671;SDS011;10495;50.922;4.760;2022-08-19T12:24:45;5.50;;;3.67;;
20671;SDS011;10495;50.922;4.760;2022-08-19T12:27:11;6.57;;;4.22;;
20671;SDS011;10495;50.922;4.760;2022-08-19T12:29:36;5.00;;;3.88;;
20671;SDS011;10495;50.922;4.760;2022-08-19T12:32:02;5.88;;;3.65;;
20671;SDS011;10495;50.922;4.760;2022-08-19T12:34:28;3.78;;;3.45;;
20671;SDS011;10495;50.922;4.760;2022-08-19T12:36:55;4.47;;;3.67;;
20671;SDS011;10495;50.922;4.760;2022-08-19T12:39:23;4.57;;;3.72;;
20671;SDS011;10495;50.922;4.760;2022-08-19T12:41:49;3.97;;;3.20;;
20671;SDS011;10495;50.922;4.760;2022-08-19T12:44:14;5.65;;;3.95;;
20671;SDS011;10495;50.922;4.760;2022-08-19T12:46:41;3.85;;;3.38;;
20671;SDS011;10495;50.922;4.760;2022-08-19T12:49:07;6.13;;;4.07;;
20671;SDS011;10495;50.922;4.760;2022-08-19T12:51:32;5.13;;;4.55;;
20671;SDS011;10495;50.922;4.760;2022-08-19T12:53:58;5.28;;;4.53;;
20671;SDS011;10495;50.922;4.760;2022-08-19T12:56:24;8.15;;;4.18;;
20671;SDS011;10495;50.922;4.760;2022-08-19T12:58:49;5.15;;;4.18;;
20671;SDS011;10495;50.922;4.760;2022-08-19T13:01:16;5.97;;;4.00;;
20671;SDS011;10495;50.922;4.760;2022-08-19T13:03:44;7.43;;;4.43;;
20671;SDS011;10495;50.922;4.760;2022-08-19T13:06:11;8.40;;;4.60;;
20671;SDS011;10495;50.922;4.760;2022-08-19T13:08:37;4.90;;;4.40;;
20671;SDS011;10495;50.922;4.760;2022-08-19T13:11:16;7.25;;;4.57;;
20671;SDS011;10495;50.922;4.760;2022-08-19T13:13:44;7.03;;;5.20;;
20671;SDS011;10495;50.922;4.760;2022-08-19T13:16:12;5.60;;;4.38;;
20671;SDS011;10495;50.922;4.760;2022-08-19T13:18:39;5.80;;;4.75;;
20671;SDS011;10495;50.922;4.760;2022-08-19T13:21:07;7.90;;;4.72;;
20671;SDS011;10495;50.922;4.760;2022-08-19T13:23:35;5.38;;;4.25;;
20671;SDS011;10495;50.922;4.760;2022-08-19T13:26:02;6.93;;;4.03;;
20671;SDS011;10495;50.922;4.760;2022-08-19T13:28:30;4.72;;;3.70;;
20671;SDS011;10495;50.922;4.760;2022-08-19T13:31:16;4.55;;;3.20;;
20671;SDS011;10495;50.922;4.760;2022-08-19T13:34:02;13.20;;;4.53;;
20671;SDS011;10495;50.922;4.760;2022-08-19T13:36:30;7.20;;;4.10;;
20671;SDS011;10495;50.922;4.760;2022-08-19T13:38:57;7.25;;;3.85;;
20671;SDS011;10495;50.922;4.760;2022-08-19T13:41:22;4.90;;;3.90;;
20671;SDS011;10495;50.922;4.760;2022-08-19T13:43:48;4.38;;;3.97;;
20671;SDS011;10495;50.922;4.760;2022-08-19T13:46:14;3.45;;;3.15;;
20671;SDS011;10495;50.922;4.760;2022-08-19T13:48:39;4.88;;;3.38;;
20671;SDS011;10495;50.922;4.760;2022-08-19T13:51:06;6.43;;;3.65;;
20671;SDS011;10495;50.922;4.760;2022-08-19T13:53:35;4.28;;;3.45;;
20671;SDS011;10495;50.922;4.760;2022-08-19T13:56:05;4.45;;;3.38;;
20671;SDS011;10495;50.922;4.760;2022-08-19T13:58:31;3.75;;;3.30;;
20671;SDS011;10495;50.922;4.760;2022-08-19T14:00:57;3.72;;;3.42;;
20671;SDS011;10495;50.922;4.760;2022-08-19T14:03:24;4.72;;;3.20;;
20671;SDS011;10495;50.922;4.760;2022-08-19T14:05:50;3.65;;;3.35;;
20671;SDS011;10495;50.922;4.760;2022-08-19T14:08:15;3.08;;;2.88;;
20671;SDS011;10495;50.922;4.760;2022-08-19T14:10:41;3.25;;;2.95;;
20671;SDS011;10495;50.922;4.760;2022-08-19T14:13:09;3.20;;;2.83;;
20671;SDS011;10495;50.922;4.760;2022-08-19T14:15:38;2.80;;;2.53;;
20671;SDS011;10495;50.922;4.760;2022-08-19T14:18:04;4.05;;;2.80;;
20671;SDS011;10495;50.922;4.760;2022-08-19T14:20:30;3.90;;;2.58;;
20671;SDS011;10495;50.922;4.760;2022-08-19T14:22:58;3.80;;;2.20;;
20671;SDS011;10495;50.922;4.760;2022-08-19T14:25:25;2.30;;;2.10;;
20671;SDS011;10495;50.922;4.760;2022-08-19T14:27:53;1.98;;;1.58;;
20671;SDS011;10495;50.922;4.760;2022-08-19T14:30:20;2.33;;;1.83;;
20671;SDS011;10495;50.922;4.760;2022-08-19T14:32:50;3.42;;;1.38;;
20671;SDS011;10495;50.922;4.760;2022-08-19T14:35:16;4.60;;;1.60;;
20671;SDS011;10495;50.922;4.760;2022-08-19T14:37:43;2.03;;;1.83;;
20671;SDS011;10495;50.922;4.760;2022-08-19T14:40:09;1.80;;;1.67;;
20671;SDS011;10495;50.922;4.760;2022-08-19T14:42:36;2.10;;;1.67;;
20671;SDS011;10495;50.922;4.760;2022-08-19T14:45:02;2.00;;;1.85;;
20671;SDS011;10495;50.922;4.760;2022-08-19T14:47:30;2.33;;;1.48;;
20671;SDS011;10495;50.922;4.760;2022-08-19T14:49:55;1.40;;;1.30;;
20671;SDS011;10495;50.922;4.760;2022-08-19T14:52:21;4.63;;;1.58;;